createdAt,value
2017-10-11T00:02:12.767Z,59.97
2017-10-11T00:04:41.658Z,60.09
2017-10-11T00:07:10.453Z,60.18
2017-10-11T00:09:39.211Z,60.20
2017-10-11T00:12:07.726Z,60.26
2017-10-11T00:14:36.627Z,60.30
2017-10-11T00:17:05.531Z,60.19
2017-10-11T00:19:34.319Z,60.20
2017-10-11T00:22:03.316Z,60.17
2017-10-11T00:24:32.590Z,60.38
2017-10-11T00:27:01.419Z,60.35
2017-10-11T00:29:30.027Z,60.42
2017-10-11T00:31:58.864Z,60.21
2017-10-11T00:34:27.543Z,60.20
2017-10-11T00:36:56.413Z,60.36
2017-10-11T00:39:25.069Z,60.30
2017-10-11T00:41:53.602Z,60.27
2017-10-11T00:44:22.575Z,60.49
2017-10-11T00:46:51.425Z,60.51
2017-10-11T00:49:20.428Z,60.44
2017-10-11T00:51:49.150Z,60.46
2017-10-11T00:54:17.794Z,60.51
2017-10-11T00:56:46.322Z,60.52
2017-10-11T00:59:14.963Z,60.62
2017-10-11T01:01:43.894Z,60.49
2017-10-11T01:04:12.791Z,60.60
2017-10-11T01:06:41.233Z,60.54
2017-10-11T01:09:09.898Z,60.50
2017-10-11T01:11:38.543Z,60.59
2017-10-11T01:14:07.488Z,60.64
2017-10-11T01:16:36.239Z,60.76
2017-10-11T01:19:04.890Z,60.70
2017-10-11T01:21:33.510Z,60.73
2017-10-11T01:24:02.625Z,60.66
2017-10-11T01:26:31.226Z,60.60
2017-10-11T01:29:00.019Z,60.56
2017-10-11T01:31:28.555Z,60.60
2017-10-11T01:33:57.389Z,60.73
2017-10-11T01:36:26.331Z,60.87
2017-10-11T01:38:55.174Z,60.85
2017-10-11T01:41:23.836Z,60.80
2017-10-11T01:43:52.491Z,60.73
2017-10-11T01:46:21.257Z,60.78
2017-10-11T01:48:49.926Z,60.79
2017-10-11T01:51:18.475Z,60.99
2017-10-11T01:53:47.576Z,60.88
2017-10-11T01:56:16.645Z,60.87
2017-10-11T01:58:46.743Z,60.89
2017-10-11T02:01:15.615Z,60.77
2017-10-11T02:03:44.327Z,60.73
2017-10-11T02:06:13.275Z,60.89
2017-10-11T02:08:42.204Z,60.82
2017-10-11T02:11:11.019Z,60.92
2017-10-11T02:13:39.818Z,61.08
2017-10-11T02:16:08.538Z,61.05
2017-10-11T02:18:36.997Z,61.01
2017-10-11T02:21:05.548Z,60.98
2017-10-11T02:23:34.268Z,60.96
2017-10-11T02:26:03.223Z,61.01
2017-10-11T02:28:32.024Z,60.97
2017-10-11T02:31:00.708Z,61.02
2017-10-11T02:33:29.339Z,61.00
2017-10-11T02:35:58.238Z,61.07
2017-10-11T02:38:27.022Z,61.02
2017-10-11T02:40:55.718Z,61.07
2017-10-11T02:43:24.351Z,61.10
2017-10-11T02:45:53.189Z,61.15
2017-10-11T02:48:22.054Z,61.18
2017-10-11T02:50:50.935Z,61.08
2017-10-11T02:53:19.811Z,61.14
2017-10-11T02:55:48.458Z,61.06
2017-10-11T02:58:17.209Z,61.17
2017-10-11T03:00:45.921Z,61.07
2017-10-11T03:03:14.763Z,61.09
2017-10-11T03:05:43.310Z,61.17
2017-10-11T03:08:12.334Z,61.03
2017-10-11T03:10:40.883Z,61.09
2017-10-11T03:13:09.750Z,61.04
2017-10-11T03:15:38.940Z,61.03
2017-10-11T03:18:07.498Z,61.15
2017-10-11T03:20:36.034Z,61.15
2017-10-11T03:23:05.678Z,61.28
2017-10-11T03:25:34.441Z,61.24
2017-10-11T03:28:03.472Z,61.07
2017-10-11T03:30:32.085Z,61.10
2017-10-11T03:33:01.059Z,61.19
2017-10-11T03:35:29.562Z,61.25
2017-10-11T03:37:58.400Z,61.24
2017-10-11T03:40:27.138Z,61.16
2017-10-11T03:42:56.211Z,61.23
2017-10-11T03:45:24.750Z,61.16
2017-10-11T03:47:53.524Z,61.28
2017-10-11T03:50:22.094Z,61.17
2017-10-11T03:52:50.965Z,61.19
2017-10-11T03:55:19.552Z,61.32
2017-10-11T03:57:48.555Z,61.51
2017-10-11T04:03:19.307Z,61.46
2017-10-11T04:05:48.171Z,61.29
2017-10-11T04:08:16.626Z,61.22
2017-10-11T04:10:45.239Z,61.33
2017-10-11T04:13:14.118Z,61.26
2017-10-11T04:15:42.812Z,61.29
2017-10-11T04:18:11.755Z,61.31
2017-10-11T04:20:40.330Z,61.40
2017-10-11T04:23:08.959Z,61.36
2017-10-11T04:25:37.727Z,61.32
2017-10-11T04:28:06.587Z,61.22
2017-10-11T04:30:35.914Z,61.23
2017-10-11T04:33:04.542Z,61.30
2017-10-11T04:35:33.266Z,61.27
2017-10-11T04:38:02.139Z,61.48
2017-10-11T04:40:31.055Z,61.58
2017-10-11T04:42:59.743Z,61.51
2017-10-11T04:45:28.608Z,61.55
2017-10-11T04:47:57.276Z,61.50
2017-10-11T04:50:26.163Z,61.56
2017-10-11T04:52:54.740Z,61.64
2017-10-11T04:55:23.516Z,61.67
2017-10-11T04:57:52.024Z,61.68
2017-10-11T05:00:22.767Z,61.66
2017-10-11T05:02:51.549Z,61.66
2017-10-11T05:05:20.590Z,61.65
2017-10-11T05:07:49.231Z,61.75
2017-10-11T05:10:17.726Z,61.79
2017-10-11T05:12:46.555Z,61.89
2017-10-11T05:15:15.359Z,61.93
2017-10-11T05:17:44.130Z,62.10
2017-10-11T05:20:12.739Z,62.26
2017-10-11T05:22:41.326Z,62.43
2017-10-11T05:25:10.634Z,62.59
2017-10-11T05:27:39.942Z,62.67
2017-10-11T05:30:08.508Z,62.82
2017-10-11T05:32:37.164Z,62.91
2017-10-11T05:35:06.042Z,62.88
2017-10-11T05:37:34.670Z,62.87
2017-10-11T05:40:03.374Z,62.91
2017-10-11T05:42:32.122Z,62.95
2017-10-11T05:45:00.779Z,62.97
2017-10-11T05:47:29.687Z,63.01
2017-10-11T05:49:58.493Z,63.18
2017-10-11T05:52:27.065Z,63.21
2017-10-11T05:54:55.654Z,63.26
2017-10-11T05:57:24.213Z,63.34
2017-10-11T05:59:53.067Z,63.32
2017-10-11T06:02:22.372Z,63.38
2017-10-11T06:04:51.210Z,63.43
2017-10-11T06:07:19.961Z,63.42
2017-10-11T06:09:48.618Z,63.31
2017-10-11T06:12:17.510Z,63.37
2017-10-11T06:14:46.239Z,63.56
2017-10-11T06:17:15.312Z,63.79
2017-10-11T06:19:44.398Z,63.67
2017-10-11T06:22:13.363Z,63.64
2017-10-11T06:24:41.926Z,63.66
2017-10-11T06:27:10.518Z,63.58
2017-10-11T06:29:39.521Z,63.53
2017-10-11T06:32:08.263Z,63.54
2017-10-11T06:34:37.212Z,63.52
2017-10-11T06:37:05.834Z,63.49
2017-10-11T06:39:34.691Z,63.52
2017-10-11T06:42:03.465Z,63.51
2017-10-11T06:44:32.447Z,63.53
2017-10-11T06:47:01.387Z,63.60
2017-10-11T06:49:32.193Z,63.54
2017-10-11T06:52:00.888Z,63.47
2017-10-11T06:54:30.000Z,63.47
2017-10-11T06:56:59.005Z,63.46
2017-10-11T06:59:28.148Z,63.43
2017-10-11T07:01:56.804Z,63.48
2017-10-11T07:04:26.240Z,63.39
2017-10-11T07:06:54.943Z,63.47
2017-10-11T07:09:23.619Z,63.42
2017-10-11T07:11:52.578Z,63.44
2017-10-11T07:14:21.423Z,63.47
2017-10-11T07:16:50.342Z,63.40
2017-10-11T07:19:19.059Z,63.45
2017-10-11T07:21:47.620Z,63.42
2017-10-11T07:24:17.126Z,63.46
2017-10-11T07:26:45.618Z,63.52
2017-10-11T07:29:14.335Z,63.42
2017-10-11T07:31:44.089Z,63.46
2017-10-11T07:34:12.623Z,63.41
2017-10-11T07:36:41.651Z,63.38
2017-10-11T07:39:10.471Z,63.40
2017-10-11T07:41:39.130Z,63.33
2017-10-11T07:44:07.979Z,63.29
2017-10-11T07:46:36.917Z,63.50
2017-10-11T07:49:05.800Z,63.57
2017-10-11T07:51:34.870Z,63.53
2017-10-11T07:54:04.046Z,63.53
2017-10-11T07:56:32.703Z,63.53
2017-10-11T07:59:02.654Z,63.50
2017-10-11T08:01:31.544Z,63.48
2017-10-11T08:04:00.590Z,63.51
2017-10-11T08:06:29.681Z,63.51
2017-10-11T08:08:58.743Z,63.50
2017-10-11T08:11:28.144Z,63.55
2017-10-11T08:13:56.782Z,63.51
2017-10-11T08:16:25.435Z,63.53
2017-10-11T08:18:54.087Z,63.49
2017-10-11T08:21:22.760Z,63.53
2017-10-11T08:23:51.283Z,63.53
2017-10-11T08:26:20.051Z,63.56
2017-10-11T08:28:48.828Z,63.48
2017-10-11T08:31:18.035Z,63.47
2017-10-11T08:33:47.075Z,63.58
2017-10-11T08:36:16.621Z,63.55
2017-10-11T08:38:45.807Z,63.51
2017-10-11T08:41:14.952Z,63.53
2017-10-11T08:43:43.884Z,63.56
2017-10-11T08:46:12.926Z,63.41
2017-10-11T08:48:42.015Z,63.30
2017-10-11T08:51:11.192Z,63.36
2017-10-11T08:53:46.603Z,63.14
2017-10-11T08:56:15.946Z,62.79
2017-10-11T08:58:44.648Z,62.47
2017-10-11T09:01:13.819Z,62.15
2017-10-11T09:03:42.442Z,62.56
2017-10-11T09:06:11.414Z,62.84
2017-10-11T09:08:40.434Z,62.97
2017-10-11T09:11:09.215Z,63.09
2017-10-11T09:13:37.907Z,63.12
2017-10-11T09:16:06.774Z,63.61
2017-10-11T09:18:35.674Z,63.84
2017-10-11T09:21:04.424Z,63.66
2017-10-11T09:23:33.289Z,63.67
2017-10-11T09:26:02.130Z,63.60
2017-10-11T09:28:30.903Z,63.58
2017-10-11T09:31:00.989Z,63.67
2017-10-11T09:33:36.975Z,63.80
2017-10-11T09:36:09.162Z,64.06
2017-10-11T09:38:42.005Z,64.14
2017-10-11T09:41:13.524Z,63.99
2017-10-11T09:43:44.509Z,64.06
2017-10-11T09:46:13.985Z,64.05
2017-10-11T09:48:43.742Z,64.28
2017-10-11T09:51:12.795Z,64.29
2017-10-11T09:53:41.890Z,64.14
2017-10-11T09:56:11.001Z,64.14
2017-10-11T09:58:40.120Z,64.04
2017-10-11T10:01:11.039Z,64.29
2017-10-11T10:03:40.325Z,64.28
2017-10-11T10:06:11.511Z,64.31
2017-10-11T10:08:40.594Z,64.21
2017-10-11T10:11:09.434Z,64.48
2017-10-11T10:13:38.116Z,64.39
2017-10-11T10:16:06.832Z,64.60
2017-10-11T10:18:35.858Z,64.72
2017-10-11T10:21:05.212Z,64.45
2017-10-11T10:23:34.385Z,64.59
2017-10-11T10:26:03.234Z,64.72
2017-10-11T10:28:32.652Z,64.50
2017-10-11T10:31:01.338Z,64.44
2017-10-11T10:33:30.296Z,64.55
2017-10-11T10:35:59.023Z,64.51
2017-10-11T10:38:28.633Z,64.66
2017-10-11T10:40:58.763Z,64.62
2017-10-11T10:43:27.927Z,64.76
2017-10-11T10:45:58.512Z,64.68
2017-10-11T10:48:27.754Z,64.67
2017-10-11T10:50:56.554Z,64.83
2017-10-11T10:53:25.443Z,64.95
2017-10-11T10:55:54.091Z,64.71
2017-10-11T10:58:22.585Z,64.95
2017-10-11T11:00:51.126Z,64.91
2017-10-11T11:03:19.854Z,64.88
2017-10-11T11:05:48.535Z,64.95
2017-10-11T11:08:17.440Z,64.98
2017-10-11T11:10:46.142Z,64.85
2017-10-11T11:13:14.923Z,64.67
2017-10-11T11:15:43.831Z,64.68
2017-10-11T11:18:13.295Z,64.65
2017-10-11T11:20:42.919Z,64.80
2017-10-11T11:23:12.459Z,64.75
2017-10-11T11:25:41.791Z,64.64
2017-10-11T11:28:11.270Z,64.71
2017-10-11T11:30:40.015Z,64.93
2017-10-11T11:33:08.659Z,64.83
2017-10-11T11:35:37.807Z,65.03
2017-10-11T11:38:06.539Z,65.19
2017-10-11T11:40:35.531Z,64.74
2017-10-11T11:43:04.359Z,64.59
2017-10-11T11:45:33.102Z,64.49
2017-10-11T11:48:01.930Z,64.65
2017-10-11T11:50:31.404Z,64.65
2017-10-11T11:53:00.335Z,64.62
2017-10-11T11:55:30.497Z,64.52
2017-10-11T11:57:59.119Z,64.68
2017-10-11T12:00:27.752Z,64.56
2017-10-11T12:02:56.491Z,64.60
2017-10-11T12:05:25.454Z,64.64
2017-10-11T12:07:54.266Z,64.67
2017-10-11T12:10:24.486Z,64.57
2017-10-11T12:12:54.272Z,64.74
2017-10-11T12:15:22.781Z,64.66
2017-10-11T12:17:51.734Z,64.74
2017-10-11T12:20:20.452Z,64.57
2017-10-11T12:22:49.493Z,64.68
2017-10-11T12:25:18.203Z,64.59
2017-10-11T12:27:47.047Z,64.75
2017-10-11T12:30:15.634Z,64.65
2017-10-11T12:32:44.474Z,64.66
2017-10-11T12:35:13.387Z,64.59
2017-10-11T12:37:42.179Z,64.62
2017-10-11T12:40:10.906Z,64.47
2017-10-11T12:42:44.362Z,64.51
2017-10-11T12:45:13.723Z,64.50
2017-10-11T12:47:42.577Z,64.48
2017-10-11T12:50:11.502Z,64.53
2017-10-11T12:52:40.385Z,64.36
2017-10-11T12:55:08.983Z,64.09
2017-10-11T12:57:37.774Z,64.12
2017-10-11T13:00:06.718Z,64.17
2017-10-11T13:02:36.381Z,64.21
2017-10-11T13:05:05.342Z,64.25
2017-10-11T13:07:33.979Z,64.30
2017-10-11T13:10:03.895Z,64.29
2017-10-11T13:12:33.054Z,64.21
2017-10-11T13:15:01.728Z,64.25
2017-10-11T13:17:31.273Z,64.30
2017-10-11T13:19:59.776Z,64.25
2017-10-11T13:22:28.502Z,64.25
2017-10-11T13:24:57.459Z,65.31
2017-10-11T13:27:26.290Z,66.31
2017-10-11T13:29:55.343Z,66.62
2017-10-11T13:32:23.899Z,66.95
2017-10-11T13:34:52.543Z,67.17
2017-10-11T13:37:21.199Z,68.25
2017-10-11T13:39:50.944Z,68.15
2017-10-11T13:42:20.627Z,68.11
2017-10-11T13:44:49.261Z,68.77
2017-10-11T13:47:19.883Z,67.95
2017-10-11T13:49:49.595Z,68.84
2017-10-11T13:52:18.338Z,68.44
2017-10-11T13:54:47.169Z,67.70
2017-10-11T13:57:15.879Z,68.88
2017-10-11T13:59:44.697Z,68.80
2017-10-11T14:02:13.288Z,68.74
2017-10-11T14:04:46.964Z,69.17
2017-10-11T14:07:15.980Z,69.66
2017-10-11T14:09:44.779Z,69.48
2017-10-11T14:12:13.766Z,69.43
2017-10-11T14:14:42.622Z,69.69
2017-10-11T14:17:11.418Z,69.63
2017-10-11T14:19:40.080Z,69.77
2017-10-11T14:22:08.835Z,69.51
2017-10-11T14:24:37.454Z,69.11
2017-10-11T14:27:07.701Z,68.79
2017-10-11T14:29:36.490Z,68.51
2017-10-11T14:32:06.278Z,68.35
2017-10-11T14:34:35.486Z,68.22
2017-10-11T14:37:04.718Z,68.13
2017-10-11T14:39:34.280Z,68.01
2017-10-11T14:42:03.422Z,67.98
2017-10-11T14:44:33.271Z,67.88
2017-10-11T14:47:02.182Z,67.83
2017-10-11T14:49:30.910Z,67.72
2017-10-11T14:51:59.687Z,67.90
2017-10-11T14:54:28.274Z,67.61
2017-10-11T14:56:56.967Z,67.39
2017-10-11T14:59:25.656Z,67.81
2017-10-11T15:01:55.070Z,67.83
2017-10-11T15:04:23.967Z,67.67
2017-10-11T15:06:52.958Z,67.39
2017-10-11T15:09:21.744Z,67.81
2017-10-11T15:11:50.543Z,67.40
2017-10-11T15:14:20.432Z,67.82
2017-10-11T15:16:49.006Z,67.83
2017-10-11T15:19:17.942Z,67.77
2017-10-11T15:21:47.075Z,67.76
2017-10-11T15:24:16.380Z,67.17
2017-10-11T15:26:45.015Z,67.30
2017-10-11T15:29:14.584Z,66.84
2017-10-11T15:31:44.185Z,66.86
2017-10-11T15:34:12.682Z,66.87
2017-10-11T15:36:42.373Z,66.86
2017-10-11T15:39:10.957Z,66.43
2017-10-11T15:41:40.542Z,66.39
2017-10-11T15:44:09.042Z,66.59
2017-10-11T15:46:37.779Z,66.34
2017-10-11T15:49:06.510Z,66.40
2017-10-11T15:51:35.618Z,66.36
2017-10-11T15:54:04.655Z,66.16
2017-10-11T15:56:33.810Z,66.53
2017-10-11T15:59:02.646Z,66.27
2017-10-11T16:01:32.068Z,66.91
2017-10-11T16:04:00.552Z,66.83
2017-10-11T16:06:29.292Z,66.05
2017-10-11T16:08:58.482Z,66.49
2017-10-11T16:11:27.546Z,66.50
2017-10-11T16:13:56.455Z,66.38
2017-10-11T16:16:25.256Z,66.44
2017-10-11T16:18:54.863Z,66.30
2017-10-11T16:21:23.667Z,66.04
2017-10-11T16:23:52.735Z,66.23
2017-10-11T16:26:23.041Z,66.27
2017-10-11T16:28:52.021Z,66.30
2017-10-11T16:31:20.500Z,66.16
2017-10-11T16:33:49.527Z,66.13
2017-10-11T16:36:18.268Z,66.76
2017-10-11T16:38:47.171Z,66.58
2017-10-11T16:41:16.238Z,67.22
2017-10-11T16:43:44.714Z,67.11
2017-10-11T16:46:13.711Z,67.32
2017-10-11T16:48:42.499Z,67.36
2017-10-11T16:51:12.479Z,67.43
2017-10-11T16:53:41.784Z,67.35
2017-10-11T16:56:11.137Z,67.36
2017-10-11T16:58:40.169Z,67.10
2017-10-11T17:01:09.124Z,66.87
2017-10-11T17:03:38.880Z,66.62
2017-10-11T17:06:07.807Z,66.60
2017-10-11T17:08:37.324Z,66.46
2017-10-11T17:11:07.170Z,66.33
2017-10-11T17:13:35.695Z,66.20
2017-10-11T17:16:05.458Z,66.12
2017-10-11T17:18:35.294Z,66.17
2017-10-11T17:21:04.317Z,66.07
2017-10-11T17:23:33.076Z,66.08
2017-10-11T17:26:02.322Z,65.97
2017-10-11T17:28:30.939Z,66.05
2017-10-11T17:31:00.992Z,66.10
2017-10-11T17:33:30.307Z,66.02
2017-10-11T17:36:01.021Z,66.10
2017-10-11T17:38:30.580Z,66.13
2017-10-11T17:41:00.039Z,66.08
2017-10-11T17:43:30.430Z,66.07
2017-10-11T17:46:01.181Z,65.91
2017-10-11T17:48:31.241Z,65.77
2017-10-11T17:51:01.960Z,65.72
2017-10-11T17:53:31.505Z,65.72
2017-10-11T17:56:01.830Z,65.62
2017-10-11T17:58:32.141Z,65.54
2017-10-11T18:01:03.153Z,65.41
2017-10-11T18:03:32.864Z,65.30
2017-10-11T18:06:01.788Z,65.26
2017-10-11T18:08:33.628Z,65.17
2017-10-11T18:11:05.193Z,65.32
2017-10-11T18:13:35.311Z,65.87
2017-10-11T18:16:04.957Z,66.06
2017-10-11T18:18:36.968Z,66.02
2017-10-11T18:21:07.551Z,66.01
2017-10-11T18:23:37.589Z,65.93
2017-10-11T18:26:08.316Z,65.95
2017-10-11T18:28:38.972Z,66.00
2017-10-11T18:31:09.887Z,65.98
2017-10-11T18:33:40.435Z,65.99
2017-10-11T18:36:11.061Z,66.13
2017-10-11T18:38:39.871Z,66.15
2017-10-11T18:41:10.999Z,66.24
2017-10-11T18:43:44.428Z,65.91
2017-10-11T18:46:15.841Z,65.88
2017-10-11T18:48:46.268Z,65.68
2017-10-11T18:51:29.422Z,65.72
2017-10-11T18:54:05.318Z,65.61
2017-10-11T18:56:49.267Z,65.17
2017-10-11T18:59:24.889Z,65.04
2017-10-11T19:01:59.545Z,64.44
2017-10-11T19:04:34.258Z,64.06
2017-10-11T19:07:08.528Z,63.55
2017-10-11T19:09:39.280Z,63.28
2017-10-11T19:12:08.829Z,62.99
2017-10-11T19:14:38.509Z,62.90
2017-10-11T19:17:08.962Z,62.61
2017-10-11T19:19:39.553Z,62.37
2017-10-11T19:22:09.350Z,62.14
2017-10-11T19:24:40.694Z,61.96
2017-10-11T19:27:12.681Z,61.83
2017-10-11T19:29:43.496Z,61.68
2017-10-11T19:32:14.169Z,61.48
2017-10-11T19:34:45.318Z,61.41
2017-10-11T19:37:14.247Z,61.23
2017-10-11T19:39:46.035Z,61.15
2017-10-11T19:42:18.390Z,60.97
2017-10-11T19:44:48.236Z,61.20
2017-10-11T19:47:18.911Z,60.83
2017-10-11T19:49:49.736Z,60.70
2017-10-11T19:52:18.819Z,60.63
2017-10-11T19:54:48.434Z,60.50
2017-10-11T19:57:19.139Z,60.35
2017-10-11T19:59:47.951Z,60.28
2017-10-11T20:02:17.913Z,60.33
2017-10-11T20:04:48.063Z,60.06
2017-10-11T20:07:17.047Z,59.90
2017-10-11T20:09:46.285Z,59.90
2017-10-11T20:12:16.928Z,59.88
2017-10-11T20:14:46.785Z,60.03
2017-10-11T20:17:16.321Z,60.20
2017-10-11T20:19:47.089Z,60.59
2017-10-11T20:22:16.264Z,60.80
2017-10-11T20:24:45.633Z,60.51
2017-10-11T20:27:14.785Z,60.32
2017-10-11T20:29:44.571Z,60.43
2017-10-11T20:32:13.259Z,60.24
2017-10-11T20:34:42.845Z,60.26
2017-10-11T20:37:11.808Z,60.17
2017-10-11T20:39:40.559Z,60.13
2017-10-11T20:42:09.620Z,60.25
2017-10-11T20:44:39.327Z,60.41
2017-10-11T20:47:08.163Z,60.78
2017-10-11T20:49:37.230Z,61.02
2017-10-11T20:52:06.200Z,60.02
2017-10-11T20:54:34.991Z,59.32
2017-10-11T20:57:03.934Z,59.18
2017-10-11T20:59:33.174Z,59.24
2017-10-11T21:02:01.694Z,59.11
2017-10-11T21:04:31.093Z,58.93
2017-10-11T21:07:00.055Z,58.92
2017-10-11T21:09:28.667Z,59.50
2017-10-11T21:11:58.642Z,59.59
2017-10-11T21:14:27.386Z,60.15
2017-10-11T21:16:56.135Z,60.23
2017-10-11T21:19:25.418Z,60.06
2017-10-11T21:21:54.068Z,60.96
2017-10-11T21:24:23.650Z,61.09
2017-10-11T21:26:52.378Z,60.81
2017-10-11T21:29:24.816Z,60.75
2017-10-11T21:31:53.791Z,60.91
2017-10-11T21:34:23.510Z,60.82
2017-10-11T21:36:52.006Z,60.58
2017-10-11T21:39:20.886Z,61.17
2017-10-11T21:41:49.633Z,61.02
2017-10-11T21:44:21.879Z,61.27
2017-10-11T21:46:50.847Z,61.63
2017-10-11T21:49:19.516Z,61.01
2017-10-11T21:51:49.270Z,60.68
2017-10-11T21:54:18.048Z,61.22
2017-10-11T21:56:46.855Z,62.21
2017-10-11T21:59:15.551Z,61.68
2017-10-11T22:01:44.823Z,61.50
2017-10-11T22:04:13.512Z,61.58
2017-10-11T22:06:42.252Z,61.57
2017-10-11T22:09:11.089Z,61.55
2017-10-11T22:11:39.867Z,61.68
2017-10-11T22:14:08.452Z,61.66
2017-10-11T22:16:37.811Z,61.68
2017-10-11T22:19:06.286Z,61.69
2017-10-11T22:21:35.518Z,61.67
2017-10-11T22:24:04.002Z,61.79
2017-10-11T22:26:33.267Z,61.70
2017-10-11T22:29:03.370Z,61.69
2017-10-11T22:31:32.316Z,61.81
2017-10-11T22:34:01.663Z,61.88
2017-10-11T22:36:30.126Z,61.79
2017-10-11T22:38:58.991Z,61.85
2017-10-11T22:41:29.019Z,61.92
2017-10-11T22:43:57.598Z,61.95
2017-10-11T22:46:26.468Z,61.92
2017-10-11T22:48:55.287Z,62.02
2017-10-11T22:51:24.070Z,62.01
2017-10-11T22:53:52.731Z,62.14
2017-10-11T22:56:22.115Z,62.20
2017-10-11T22:58:51.200Z,61.83
2017-10-11T23:01:19.915Z,61.48
2017-10-11T23:03:49.008Z,61.24
2017-10-11T23:06:17.503Z,61.00
2017-10-11T23:08:46.169Z,60.80
2017-10-11T23:11:14.771Z,60.83
2017-10-11T23:13:43.326Z,61.51
2017-10-11T23:16:11.901Z,61.84
2017-10-11T23:18:40.903Z,61.93
2017-10-11T23:21:09.445Z,62.12
2017-10-11T23:23:38.272Z,62.11
2017-10-11T23:26:06.790Z,62.21
2017-10-11T23:28:35.659Z,62.30
2017-10-11T23:31:04.178Z,62.23
2017-10-11T23:33:33.027Z,62.23
2017-10-11T23:36:01.526Z,62.11
2017-10-11T23:38:30.586Z,62.28
2017-10-11T23:40:59.297Z,62.07
2017-10-11T23:43:27.987Z,62.27
2017-10-11T23:45:56.691Z,62.24
2017-10-11T23:48:25.352Z,62.02
2017-10-11T23:50:53.873Z,62.27
2017-10-11T23:53:22.499Z,62.09
2017-10-11T23:55:51.016Z,61.96
2017-10-11T23:58:19.870Z,61.92
